Airfield :
LOGIN :

Register | Disclaimer

   EN    FR    IT 

 










Legend :    VFR   Marginal VFR   IFR   Intensive IFR   Very Intensive IFR
Visi :
Ceiling :
>= 8 km
>= 3000ft
5 to 8 km
1000 to 3000 ft
1500m to 5 km
500 to 1000 ft
800 to 1500m
200 to 500 ft
< 800m
< 200 ft
Symbols :   Thunderstorms  Fog  Heavy snow  Heavy precipitations  Wind > 20 kt
SIGMETs :     Misc.  Thunderstorms  Icing  Turbulence  Mountain Waves  Volcanic Ashes







- Airport Elevation : 1682 ft
- IATA code : VIT


LEVT - Vitoria Gasteiz

CURRENT METAR :
  • 210300Z 00000KT 9000 FEW070 09/09 Q1013

EXPIRED METARs :
  • 210230Z VRB02KT 9000 FEW070 09/09 Q1013
  • 210200Z 00000KT 9999 FEW070 09/09 Q1013
  • 210130Z 00000KT 9999 FEW060 10/09 Q1013
  • 210100Z VRB02KT 9999 FEW060 10/09 Q1013
  • 210030Z 28001KT 9999 FEW060 11/10 Q1014

TAF TAF LEVT
Valid from the 21 at 00:00 until the 22 at 00:00 UTC


202300Z 2100/2124 VRB03KT 9999 SCT040 TX24/2114Z TN07/2107Z
PROB40
TEMPO 2103/2106 0350 FG VV001
TEMPO 2112/2121 VRB15G30KT 3000 SHRA TS SCT030TCU SCT040CB
No reported NOTAMs for that airfield.



MET'MAP, your aeronautical weather chart ! - Copyright ORBIFLY December 2007 - Disclaimer

ORBIFLY MET'MAP TEAM :

Programming & Development : Alexandra Zaïnal
Concept & Development : Baudouin d'Aumeries
Co-Development & Prog : Marc-Olivier Méhu
Technical & hardware support : Manuel Goepfert

Contact : metmap@orbifly.com




SOURCES & CREDITS :

   NOAA